sensor_id;sensor_type;location;lat;lon;timestamp;P1;durP1;ratioP1;P2;durP2;ratioP2
77168;SDS011;66281;45.114;20.730;2023-04-25T00:01:46;24.10;;;15.73;;
77168;SDS011;66281;45.114;20.730;2023-04-25T00:11:47;28.00;;;17.83;;
77168;SDS011;66281;45.114;20.730;2023-04-25T00:21:48;30.10;;;20.20;;
77168;SDS011;66281;45.114;20.730;2023-04-25T00:31:48;36.63;;;21.67;;
77168;SDS011;66281;45.114;20.730;2023-04-25T00:41:49;38.05;;;23.05;;
77168;SDS011;66281;45.114;20.730;2023-04-25T00:51:50;40.73;;;24.30;;
77168;SDS011;66281;45.114;20.730;2023-04-25T01:01:51;42.40;;;23.98;;
77168;SDS011;66281;45.114;20.730;2023-04-25T01:11:52;42.20;;;25.05;;
77168;SDS011;66281;45.114;20.730;2023-04-25T01:21:52;43.07;;;23.23;;
77168;SDS011;66281;45.114;20.730;2023-04-25T01:31:53;35.17;;;20.80;;
77168;SDS011;66281;45.114;20.730;2023-04-25T01:41:54;31.13;;;19.30;;
77168;SDS011;66281;45.114;20.730;2023-04-25T01:51:55;32.90;;;18.92;;
77168;SDS011;66281;45.114;20.730;2023-04-25T02:01:56;25.27;;;16.23;;
77168;SDS011;66281;45.114;20.730;2023-04-25T02:12:02;19.47;;;14.47;;
77168;SDS011;66281;45.114;20.730;2023-04-25T02:22:09;21.27;;;12.87;;
77168;SDS011;66281;45.114;20.730;2023-04-25T02:32:11;20.27;;;11.57;;
77168;SDS011;66281;45.114;20.730;2023-04-25T02:42:11;16.08;;;10.95;;
77168;SDS011;66281;45.114;20.730;2023-04-25T02:52:12;19.07;;;12.00;;
77168;SDS011;66281;45.114;20.730;2023-04-25T03:02:13;21.67;;;12.83;;
77168;SDS011;66281;45.114;20.730;2023-04-25T03:12:13;19.70;;;13.07;;
77168;SDS011;66281;45.114;20.730;2023-04-25T03:22:14;21.10;;;13.20;;
77168;SDS011;66281;45.114;20.730;2023-04-25T03:32:15;21.87;;;13.40;;
77168;SDS011;66281;45.114;20.730;2023-04-25T03:42:16;23.98;;;14.55;;
77168;SDS011;66281;45.114;20.730;2023-04-25T03:52:18;25.03;;;14.60;;
77168;SDS011;66281;45.114;20.730;2023-04-25T04:02:19;29.43;;;15.53;;
77168;SDS011;66281;45.114;20.730;2023-04-25T04:12:21;30.90;;;17.38;;
77168;SDS011;66281;45.114;20.730;2023-04-25T04:22:22;36.53;;;20.57;;
77168;SDS011;66281;45.114;20.730;2023-04-25T04:32:24;9.97;;;6.87;;
77168;SDS011;66281;45.114;20.730;2023-04-25T04:42:27;7.07;;;4.88;;
77168;SDS011;66281;45.114;20.730;2023-04-25T04:52:46;7.67;;;4.40;;
77168;SDS011;66281;45.114;20.730;2023-04-25T05:03:18;13.93;;;5.47;;
77168;SDS011;66281;45.114;20.730;2023-04-25T05:13:38;6.72;;;4.88;;
77168;SDS011;66281;45.114;20.730;2023-04-25T05:24:01;4.43;;;3.37;;
77168;SDS011;66281;45.114;20.730;2023-04-25T05:34:20;7.90;;;5.70;;
77168;SDS011;66281;45.114;20.730;2023-04-25T05:44:33;8.43;;;6.47;;
77168;SDS011;66281;45.114;20.730;2023-04-25T05:54:53;11.13;;;7.80;;
77168;SDS011;66281;45.114;20.730;2023-04-25T06:04:54;10.20;;;7.60;;
77168;SDS011;66281;45.114;20.730;2023-04-25T06:14:56;9.13;;;7.03;;
77168;SDS011;66281;45.114;20.730;2023-04-25T06:24:58;12.43;;;8.63;;
77168;SDS011;66281;45.114;20.730;2023-04-25T06:34:59;9.02;;;6.05;;
77168;SDS011;66281;45.114;20.730;2023-04-25T06:45:01;7.00;;;5.00;;
77168;SDS011;66281;45.114;20.730;2023-04-25T06:55:03;8.50;;;5.40;;
77168;SDS011;66281;45.114;20.730;2023-04-25T07:05:22;6.77;;;5.80;;
77168;SDS011;66281;45.114;20.730;2023-04-25T07:15:23;7.03;;;4.70;;
77168;SDS011;66281;45.114;20.730;2023-04-25T07:25:24;8.70;;;5.20;;
77168;SDS011;66281;45.114;20.730;2023-04-25T07:35:26;9.27;;;6.10;;
77168;SDS011;66281;45.114;20.730;2023-04-25T07:45:27;8.27;;;5.50;;
77168;SDS011;66281;45.114;20.730;2023-04-25T07:55:28;6.70;;;4.78;;
77168;SDS011;66281;45.114;20.730;2023-04-25T08:05:37;6.00;;;4.20;;
77168;SDS011;66281;45.114;20.730;2023-04-25T08:15:41;6.50;;;4.13;;
77168;SDS011;66281;45.114;20.730;2023-04-25T08:25:42;6.30;;;4.32;;
77168;SDS011;66281;45.114;20.730;2023-04-25T08:35:46;7.83;;;4.70;;
77168;SDS011;66281;45.114;20.730;2023-04-25T08:45:48;7.53;;;4.87;;
77168;SDS011;66281;45.114;20.730;2023-04-25T08:56:01;7.83;;;5.40;;
77168;SDS011;66281;45.114;20.730;2023-04-25T14:14:10;5.17;;;2.43;;
77168;SDS011;66281;45.114;20.730;2023-04-25T14:24:11;3.77;;;2.30;;
77168;SDS011;66281;45.114;20.730;2023-04-25T14:34:12;10.95;;;4.72;;
77168;SDS011;66281;45.114;20.730;2023-04-25T14:44:12;4.45;;;3.20;;
77168;SDS011;66281;45.114;20.730;2023-04-25T14:54:13;7.85;;;3.50;;
77168;SDS011;66281;45.114;20.730;2023-04-25T15:04:14;135.53;;;34.20;;
77168;SDS011;66281;45.114;20.730;2023-04-25T15:14:16;25.70;;;8.50;;
77168;SDS011;66281;45.114;20.730;2023-04-25T15:24:17;11.13;;;4.60;;
77168;SDS011;66281;45.114;20.730;2023-04-25T15:34:18;10.83;;;4.70;;
77168;SDS011;66281;45.114;20.730;2023-04-25T15:44:19;9.17;;;4.33;;
77168;SDS011;66281;45.114;20.730;2023-04-25T15:54:19;10.48;;;5.80;;
77168;SDS011;66281;45.114;20.730;2023-04-25T16:04:20;16.95;;;8.52;;
77168;SDS011;66281;45.114;20.730;2023-04-25T16:14:20;6.72;;;4.25;;
77168;SDS011;66281;45.114;20.730;2023-04-25T16:24:21;8.50;;;4.77;;
77168;SDS011;66281;45.114;20.730;2023-04-25T16:34:22;8.80;;;4.60;;
77168;SDS011;66281;45.114;20.730;2023-04-25T16:44:23;11.23;;;6.93;;
77168;SDS011;66281;45.114;20.730;2023-04-25T16:54:23;20.17;;;10.52;;
77168;SDS011;66281;45.114;20.730;2023-04-25T17:04:25;18.00;;;11.50;;
77168;SDS011;66281;45.114;20.730;2023-04-25T17:14:25;21.60;;;15.80;;
77168;SDS011;66281;45.114;20.730;2023-04-25T17:24:27;16.40;;;13.18;;
77168;SDS011;66281;45.114;20.730;2023-04-25T17:34:27;177.93;;;82.72;;
77168;SDS011;66281;45.114;20.730;2023-04-25T17:44:28;35.03;;;22.67;;
77168;SDS011;66281;45.114;20.730;2023-04-25T17:54:29;20.60;;;12.45;;
77168;SDS011;66281;45.114;20.730;2023-04-25T18:04:30;48.83;;;22.60;;
77168;SDS011;66281;45.114;20.730;2023-04-25T18:14:31;66.40;;;33.13;;
77168;SDS011;66281;45.114;20.730;2023-04-25T18:24:32;53.78;;;28.45;;
77168;SDS011;66281;45.114;20.730;2023-04-25T18:34:33;51.00;;;27.87;;
77168;SDS011;66281;45.114;20.730;2023-04-25T18:44:34;46.03;;;24.70;;
77168;SDS011;66281;45.114;20.730;2023-04-25T18:54:35;34.83;;;20.00;;
77168;SDS011;66281;45.114;20.730;2023-04-25T19:04:36;28.02;;;18.05;;
77168;SDS011;66281;45.114;20.730;2023-04-25T19:14:36;30.87;;;19.50;;
77168;SDS011;66281;45.114;20.730;2023-04-25T19:24:37;37.60;;;24.47;;
77168;SDS011;66281;45.114;20.730;2023-04-25T19:34:37;29.08;;;19.02;;
77168;SDS011;66281;45.114;20.730;2023-04-25T19:44:38;59.77;;;19.37;;
77168;SDS011;66281;45.114;20.730;2023-04-25T19:54:39;58.60;;;33.42;;
77168;SDS011;66281;45.114;20.730;2023-04-25T20:04:41;84.40;;;47.97;;
77168;SDS011;66281;45.114;20.730;2023-04-25T20:14:42;82.40;;;43.97;;
77168;SDS011;66281;45.114;20.730;2023-04-25T20:24:43;99.07;;;53.33;;
77168;SDS011;66281;45.114;20.730;2023-04-25T20:34:43;92.67;;;51.10;;
77168;SDS011;66281;45.114;20.730;2023-04-25T20:44:44;86.75;;;45.60;;
77168;SDS011;66281;45.114;20.730;2023-04-25T20:54:45;71.97;;;40.13;;
77168;SDS011;66281;45.114;20.730;2023-04-25T21:04:46;69.53;;;37.60;;
77168;SDS011;66281;45.114;20.730;2023-04-25T21:14:47;56.30;;;32.70;;
77168;SDS011;66281;45.114;20.730;2023-04-25T21:24:47;66.43;;;37.03;;
77168;SDS011;66281;45.114;20.730;2023-04-25T21:34:48;77.57;;;41.73;;
77168;SDS011;66281;45.114;20.730;2023-04-25T21:44:49;59.58;;;32.72;;
77168;SDS011;66281;45.114;20.730;2023-04-25T21:54:49;58.35;;;30.33;;
77168;SDS011;66281;45.114;20.730;2023-04-25T22:04:50;57.13;;;31.23;;
77168;SDS011;66281;45.114;20.730;2023-04-25T22:14:50;39.53;;;21.80;;
77168;SDS011;66281;45.114;20.730;2023-04-25T22:24:51;20.70;;;11.57;;
77168;SDS011;66281;45.114;20.730;2023-04-25T22:34:52;13.33;;;8.37;;
77168;SDS011;66281;45.114;20.730;2023-04-25T22:44:54;11.53;;;7.33;;
77168;SDS011;66281;45.114;20.730;2023-04-25T22:54:55;8.27;;;5.63;;
77168;SDS011;66281;45.114;20.730;2023-04-25T23:04:56;10.82;;;6.63;;
77168;SDS011;66281;45.114;20.730;2023-04-25T23:14:56;14.05;;;8.38;;
77168;SDS011;66281;45.114;20.730;2023-04-25T23:24:58;15.37;;;8.23;;
77168;SDS011;66281;45.114;20.730;2023-04-25T23:34:59;9.20;;;7.13;;
77168;SDS011;66281;45.114;20.730;2023-04-25T23:45:00;9.45;;;6.10;;
77168;SDS011;66281;45.114;20.730;2023-04-25T23:55:00;7.80;;;5.55;;
